Las Vegas, Nevada
Traffic Map
Current Weather Conditions
Las Vegas, Nevada
Clear
Clear
26°
Feels Like: 26°
Wind Chill: 26° Ceiling: Unl
Heat Index: 26° Visibility: 10mi
Dew Point: Wind: 3mph
Humidity: 20% Direction: 180° (S)
Pressure: 29.9in Gusts: 0mph
Raw Report DataKLAS 240756Z 18003KT 10SM CLR 26/01 A2990 RMK AO2 SLP101 T02560011 403280206
Traffic Incident Summary
Active as of:
Severity:
Category:
InformationThere was an issue retrieving the traffic information for this location. Please try a different location or try again shortly.
Advertisements